Time;durP1;ratioP1;P1;durP2;ratioP2;P2;SDS_P1;SDS_P2;PMS_P1;PMS_P2;Temp;Humidity;BMP_temperature;BMP_pressure;BME280_temperature;BME280_humidity;BME280_pressure;Samples;Min_cycle;Max_cycle;Signal;HPM_P1;HPM_P2
2021/07/01 02:02:57;;;;;;;6.27;4.57;;;9.20;99.90;;;;;;4434546;23;20690;-95
2021/07/01 02:16:48;;;;;;;7.63;6.50;;;9.40;99.90;;;;;;4871814;29;20447;-96
2021/07/01 02:45:35;;;;;;;1999.90;115.00;;;9.00;99.90;;;;;;4867536;29;20490;-96
2021/07/01 02:54:53;;;;;;;1999.90;141.15;;;9.10;99.90;;;;;;4931061;23;20551;-96
2021/07/01 03:01:28;;;;;;;1999.90;158.48;;;9.20;99.90;;;;;;4937508;23;20495;-96
2021/07/01 03:04:54;;;;;;;1999.90;126.55;;;9.20;99.90;;;;;;4890835;29;20513;-96
2021/07/01 03:07:52;;;;;;;1999.90;112.28;;;9.10;99.90;;;;;;4898715;29;20837;-96
2021/07/01 03:14:21;;;;;;;1999.90;126.22;;;9.20;99.90;;;;;;4990393;23;20457;-96
2021/07/01 03:17:59;;;;;;;1999.90;109.47;;;9.30;99.90;;;;;;4861719;29;20421;-96
2021/07/01 03:21:28;;;;;;;1999.90;91.85;;;9.20;99.90;;;;;;5084722;23;20477;-96
2021/07/01 03:25:05;;;;;;;1999.90;102.03;;;9.20;99.90;;;;;;4825070;29;20478;-96
2021/07/01 03:31:47;;;;;;;;;;;;;;;;;;;;;
2021/07/01 03:39:02;;;;;;;1999.90;135.45;;;9.50;99.90;;;;;;4693258;30;20468;-96
2021/07/01 03:54:44;;;;;;;1999.90;128.87;;;9.60;99.90;;;;;;4886662;29;20926;-94
2021/07/01 03:57:13;;;;;;;1999.90;83.60;;;9.60;99.90;;;;;;4871594;29;21099;-95
2021/07/01 04:04:16;;;;;;;60.03;26.15;;;9.60;99.90;;;;;;4775328;30;20446;-95
2021/07/01 04:07:55;;;;;;;286.53;39.73;;;9.60;99.90;;;;;;4782421;30;20518;-96
2021/07/01 04:10:42;;;;;;;50.03;24.85;;;9.60;99.90;;;;;;4745688;30;20426;-96
2021/07/01 04:13:15;;;;;;;88.85;29.20;;;9.60;99.90;;;;;;4773729;30;20458;-95
2021/07/01 04:16:30;;;;;;;374.63;39.88;;;9.60;99.90;;;;;;4775848;30;20497;-96
2021/07/01 04:19:21;;;;;;;37.92;21.00;;;9.60;99.90;;;;;;4687504;30;20447;-96
2021/07/01 04:22:32;;;;;;;;;;;;;;;;;;;;;
2021/07/01 04:25:25;;;;;;;35.58;19.80;;;9.60;99.90;;;;;;4674945;30;20469;-95
2021/07/01 04:27:57;;;;;;;31.02;16.70;;;9.60;99.90;;;;;;4663209;30;20441;-95
2021/07/01 04:30:28;;;;;;;37.58;18.52;;;9.50;99.90;;;;;;4679680;30;20546;-96
2021/07/01 04:33:38;;;;;;;36.37;18.53;;;9.60;99.90;;;;;;4677534;30;20440;-95
2021/07/01 04:36:30;;;;;;;36.05;17.67;;;9.50;99.90;;;;;;4712700;30;20437;-96
2021/07/01 04:38:59;;;;;;;31.77;16.75;;;9.60;99.90;;;;;;4662611;30;20439;-96
2021/07/01 04:41:27;;;;;;;29.60;17.17;;;9.60;99.90;;;;;;4680701;30;20988;-96
2021/07/01 04:44:30;;;;;;;25.97;15.10;;;9.50;99.90;;;;;;4714889;30;20944;-96
2021/07/01 04:51:30;;;;;;;27.35;15.55;;;9.50;99.90;;;;;;4831993;29;20588;-96
2021/07/01 05:01:35;;;;;;;24.58;13.90;;;9.60;99.90;;;;;;4818395;29;21022;-96
2021/07/01 05:04:37;;;;;;;18.43;10.97;;;9.50;99.90;;;;;;4801379;29;20444;-96
2021/07/01 05:07:53;;;;;;;18.38;10.60;;;9.60;99.90;;;;;;4760672;30;20965;-96
2021/07/01 05:11:04;;;;;;;16.67;10.88;;;9.60;99.90;;;;;;4762811;30;20519;-96
2021/07/01 05:26:15;;;;;;;19.95;10.52;;;9.60;99.90;;;;;;4746505;30;20480;-95
2021/07/01 05:29:16;;;;;;;81.83;14.53;;;9.60;99.90;;;;;;5182002;23;20447;-96
2021/07/01 05:32:29;;;;;;;48.75;13.48;;;9.50;99.90;;;;;;4846815;29;20444;-95
2021/07/01 05:35:06;;;;;;;186.70;20.55;;;9.60;99.90;;;;;;4850899;29;20463;-96
2021/07/01 05:41:01;;;;;;;34.83;11.07;;;9.50;99.90;;;;;;5052173;23;20453;-95
2021/07/01 05:44:15;;;;;;;;;;;;;;;;;;;;;
2021/07/01 05:47:08;;;;;;;1702.85;82.63;;;9.60;99.90;;;;;;4862208;29;20442;-95
2021/07/01 05:52:41;;;;;;;1484.90;62.97;;;9.60;99.90;;;;;;4872148;29;20623;-96
2021/07/01 05:59:13;;;;;;;1470.00;84.60;;;9.50;99.90;;;;;;4779530;30;20414;-95
2021/07/01 06:02:06;;;;;;;277.23;23.37;;;9.50;99.90;;;;;;4764984;30;20466;-96
2021/07/01 06:05:08;;;;;;;1757.88;86.88;;;9.60;99.90;;;;;;4739347;30;20960;-96
2021/07/01 06:08:23;;;;;;;1943.25;92.40;;;9.60;99.90;;;;;;4724153;30;20962;-96
2021/07/01 06:11:39;;;;;;;1784.45;87.15;;;9.70;99.90;;;;;;4708291;30;20444;-95
2021/07/01 06:17:28;;;;;;;1091.32;52.15;;;9.80;99.90;;;;;;4871471;29;20446;-95
2021/07/01 06:19:56;;;;;;;1118.65;55.63;;;9.70;99.90;;;;;;4855889;29;20458;-95
2021/07/01 06:25:20;;;;;;;254.88;19.55;;;9.90;99.90;;;;;;4794342;30;20452;-95
2021/07/01 06:28:08;;;;;;;1778.10;80.20;;;9.90;99.90;;;;;;4794603;29;20449;-96
2021/07/01 06:30:48;;;;;;;130.73;15.23;;;9.80;99.90;;;;;;4794721;30;20445;-95
2021/07/01 06:37:04;;;;;;;1470.18;73.53;;;9.90;99.90;;;;;;4787573;29;20437;-96
2021/07/01 06:42:50;;;;;;;807.22;46.45;;;9.90;99.90;;;;;;1478044;23;20632;-96
2021/07/01 06:46:03;;;;;;;924.72;58.15;;;9.90;99.90;;;;;;4811239;29;20463;-96
2021/07/01 06:49:20;;;;;;;867.78;55.78;;;10.00;99.90;;;;;;4808422;29;20435;-96
2021/07/01 06:52:40;;;;;;;1146.13;67.10;;;9.90;99.90;;;;;;4831684;29;20430;-96
2021/07/01 07:15:40;;;;;;;204.23;16.60;;;10.00;99.90;;;;;;1557465;24;20814;-95
2021/07/01 07:18:41;;;;;;;1222.15;56.08;;;10.00;99.90;;;;;;4789738;30;20453;-96
2021/07/01 07:24:38;;;;;;;402.02;24.45;;;10.10;99.90;;;;;;4764733;30;20465;-95
2021/07/01 07:27:18;;;;;;;1195.20;49.95;;;10.10;99.90;;;;;;4791201;30;20850;-96
2021/07/01 07:30:00;;;;;;;1336.30;51.67;;;10.10;99.90;;;;;;4786399;30;20444;-95
2021/07/01 07:32:39;;;;;;;1187.43;42.43;;;10.20;99.90;;;;;;4790608;30;21004;-95
2021/07/01 07:35:34;;;;;;;1000.15;43.22;;;10.20;99.90;;;;;;4790707;29;20502;-95
2021/07/01 07:38:27;;;;;;;1040.13;45.50;;;10.20;99.90;;;;;;4778941;30;20440;-95
2021/07/01 07:41:16;;;;;;;1084.90;46.00;;;10.10;99.90;;;;;;4792764;29;20471;-96
2021/07/01 07:44:05;;;;;;;663.30;33.92;;;10.10;99.90;;;;;;4771989;30;20484;-96
2021/07/01 07:46:44;;;;;;;1740.15;68.90;;;10.10;99.90;;;;;;4757420;30;20446;-96
2021/07/01 07:49:30;;;;;;;415.85;27.58;;;10.20;99.90;;;;;;4703723;30;20442;-95
2021/07/01 07:52:09;;;;;;;122.45;15.35;;;10.20;99.90;;;;;;4701600;30;20524;-96
2021/07/01 07:54:50;;;;;;;359.52;24.83;;;10.30;99.90;;;;;;4700760;30;20461;-96
2021/07/01 07:57:51;;;;;;;705.50;39.03;;;10.30;99.90;;;;;;4690742;30;20545;-95
2021/07/01 08:00:24;;;;;;;1332.82;62.00;;;10.30;99.90;;;;;;4700600;30;20467;-94
2021/07/01 08:02:59;;;;;;;1054.18;55.28;;;10.30;99.90;;;;;;4699637;30;20528;-95
2021/07/01 08:05:30;;;;;;;799.65;43.47;;;10.40;99.90;;;;;;4700937;30;20979;-95
2021/07/01 08:08:26;;;;;;;1019.53;50.85;;;10.30;99.90;;;;;;4702271;30;20504;-95
2021/07/01 08:11:22;;;;;;;1405.40;58.07;;;10.30;99.90;;;;;;4702750;30;20525;-95
2021/07/01 08:14:06;;;;;;;29.83;10.13;;;10.40;99.90;;;;;;4701292;30;20464;-95
2021/07/01 08:16:53;;;;;;;1705.63;72.82;;;10.30;99.90;;;;;;4707255;30;20517;-96
2021/07/01 08:19:26;;;;;;;101.90;14.43;;;10.30;99.90;;;;;;4717921;30;20456;-95
2021/07/01 08:21:56;;;;;;;1296.07;62.03;;;10.30;99.90;;;;;;4733018;30;20492;-95
2021/07/01 08:24:28;;;;;;;17.02;10.63;;;10.30;99.90;;;;;;4721745;30;20974;-95
2021/07/01 08:27:01;;;;;;;285.83;22.33;;;10.30;99.90;;;;;;4763178;29;20449;-94
2021/07/01 08:29:32;;;;;;;184.73;18.70;;;10.30;99.90;;;;;;4806788;29;20793;-95
2021/07/01 08:32:08;;;;;;;83.55;15.18;;;10.40;99.90;;;;;;4807071;29;20512;-95
2021/07/01 08:34:46;;;;;;;236.82;19.42;;;10.40;99.90;;;;;;4807107;29;20797;-94
2021/07/01 08:37:20;;;;;;;39.13;14.13;;;10.50;99.90;;;;;;4806278;29;20447;-94
2021/07/01 08:40:04;;;;;;;22.58;12.25;;;10.60;99.90;;;;;;4807436;29;20443;-96
2021/07/01 08:42:39;;;;;;;25.00;9.80;;;10.60;99.90;;;;;;4812863;29;20441;-94
2021/07/01 08:45:34;;;;;;;783.80;45.90;;;10.60;99.90;;;;;;4822215;29;20465;-96
2021/07/01 08:48:23;;;;;;;9.20;5.78;;;10.60;99.90;;;;;;4810122;29;20453;-95
2021/07/01 08:50:57;;;;;;;7.53;5.28;;;10.60;99.90;;;;;;4807480;29;20456;-96
2021/07/01 08:53:56;;;;;;;51.25;7.22;;;10.60;99.90;;;;;;4806988;29;20443;-96
2021/07/01 08:56:26;;;;;;;8.02;5.50;;;10.70;99.90;;;;;;4793974;29;20529;-95
2021/07/01 09:06:10;;;;;;;17.20;9.50;;;10.70;99.90;;;;;;4798417;30;20449;-96
2021/07/01 09:08:53;;;;;;;15.82;10.23;;;10.80;99.90;;;;;;4781558;30;20532;-95
2021/07/01 09:11:31;;;;;;;19.07;12.13;;;11.00;99.90;;;;;;4779526;30;20448;-96
2021/07/01 09:14:11;;;;;;;18.95;12.73;;;11.00;99.90;;;;;;4780049;30;21090;-94
2021/07/01 09:16:54;;;;;;;23.52;15.65;;;11.10;99.90;;;;;;4778663;30;20440;-95
2021/07/01 09:19:29;;;;;;;18.95;13.13;;;11.10;99.90;;;;;;4779066;30;20451;-95
2021/07/01 09:22:57;;;;;;;15.47;11.07;;;11.00;99.90;;;;;;4782129;30;20461;-96
2021/07/01 09:25:26;;;;;;;10.95;9.18;;;11.00;99.90;;;;;;4795747;30;20447;-96
2021/07/01 09:34:47;;;;;;;10.15;7.32;;;11.10;99.90;;;;;;5571661;23;20445;-96
2021/07/01 09:38:03;;;;;;;11.30;8.27;;;11.10;99.90;;;;;;4837684;29;20506;-96
2021/07/01 09:41:37;;;;;;;8.53;6.93;;;11.20;99.90;;;;;;4760171;30;20430;-96
2021/07/01 09:50:07;;;;;;;;;;;;;;;;;;;;;
2021/07/01 10:07:11;;;;;;;7.55;4.60;;;11.40;99.90;;;;;;5377856;23;20466;-96
2021/07/01 10:14:08;;;;;;;4.78;3.88;;;11.40;99.90;;;;;;5180960;23;20469;-96
2021/07/01 10:17:09;;;;;;;8.70;6.75;;;11.20;99.90;;;;;;4870303;29;20435;-96
2021/07/01 10:20:11;;;;;;;7.35;5.85;;;11.30;99.90;;;;;;4879907;23;20453;-96
2021/07/01 10:22:53;;;;;;;9.38;7.07;;;11.20;99.90;;;;;;4860748;29;20482;-96
2021/07/01 10:25:33;;;;;;;7.93;6.47;;;11.20;99.90;;;;;;4835613;29;20509;-96
2021/07/01 10:28:58;;;;;;;10.25;7.72;;;11.10;99.90;;;;;;4801228;29;20437;-95
2021/07/01 10:32:24;;;;;;;10.35;7.78;;;11.10;99.90;;;;;;4831331;29;20453;-96
2021/07/01 10:35:39;;;;;;;10.50;7.85;;;11.20;99.90;;;;;;4742915;30;20452;-96
2021/07/01 10:41:41;;;;;;;;;;;;;;;;;;;;;
2021/07/01 10:44:23;;;;;;;9.45;6.03;;;11.40;99.90;;;;;;4757467;30;20547;-96
2021/07/01 10:50:42;;;;;;;8.32;6.95;;;11.60;99.90;;;;;;4755437;30;20446;-95
2021/07/01 10:53:26;;;;;;;8.23;6.05;;;12.00;99.90;;;;;;4755739;30;20452;-95
2021/07/01 10:56:21;;;;;;;7.55;5.18;;;12.10;99.90;;;;;;4965687;23;20784;-96
2021/07/01 11:06:56;;;;;;;33.38;13.18;;;11.60;99.90;;;;;;4845764;29;20411;-96
2021/07/01 11:10:26;;;;;;;381.10;32.65;;;11.60;99.90;;;;;;4765245;30;20761;-95
2021/07/01 11:13:27;;;;;;;19.88;14.80;;;11.70;99.90;;;;;;4725126;30;20450;-95
2021/07/01 11:26:02;;;;;;;17.05;12.73;;;11.80;99.90;;;;;;4791180;30;20501;-96
2021/07/01 11:44:18;;;;;;;;;;;;;;;;;;;;;
2021/07/01 11:47:24;;;;;;;12.03;9.07;;;12.00;99.90;;;;;;4883262;29;20483;-95
2021/07/01 11:53:27;;;;;;;4.90;4.50;;;12.80;99.90;;;;;;4810524;29;20496;-96
2021/07/01 11:56:16;;;;;;;6.03;4.70;;;13.20;99.90;;;;;;4794645;29;20452;-96
2021/07/01 11:58:53;;;;;;;3.50;2.85;;;13.50;99.90;;;;;;4795567;29;20438;-96
2021/07/01 12:15:30;;;;;;;4.70;4.20;;;13.50;99.90;;;;;;4805178;29;20452;-96
2021/07/01 12:18:16;;;;;;;5.45;4.93;;;13.40;99.90;;;;;;4774581;30;20539;-96
2021/07/01 12:24:40;;;;;;;8.05;4.63;;;13.20;99.90;;;;;;4867043;29;20474;-96
2021/07/01 12:27:30;;;;;;;6.57;5.33;;;13.10;99.90;;;;;;4849891;29;20438;-96
2021/07/01 12:33:07;;;;;;;4.50;3.88;;;12.90;99.90;;;;;;4844017;29;20444;-96
2021/07/01 12:39:17;;;;;;;3.67;3.20;;;12.90;99.90;;;;;;4837486;29;20440;-96
2021/07/01 12:45:36;;;;;;;4.03;2.78;;;13.00;99.90;;;;;;4791186;30;20444;-94
2021/07/01 12:48:39;;;;;;;5.00;2.70;;;13.60;99.90;;;;;;4773310;30;20451;-96
2021/07/01 12:52:02;;;;;;;2.43;1.67;;;13.60;99.90;;;;;;4787895;30;20441;-94
2021/07/01 12:54:43;;;;;;;2.17;1.90;;;13.50;99.90;;;;;;4716741;30;20524;-96
2021/07/01 12:57:14;;;;;;;2.28;1.90;;;13.40;99.90;;;;;;4704705;30;20531;-96
2021/07/01 12:59:49;;;;;;;2.53;2.33;;;13.20;99.90;;;;;;4718302;30;20452;-94
2021/07/01 13:02:23;;;;;;;2.58;2.17;;;13.10;99.90;;;;;;4704002;30;20630;-96
2021/07/01 13:04:57;;;;;;;2.80;2.50;;;13.20;99.90;;;;;;4716366;30;20454;-95
2021/07/01 13:07:28;;;;;;;4.03;2.67;;;13.40;99.90;;;;;;4701982;30;20534;-95
2021/07/01 13:10:19;;;;;;;3.00;2.70;;;13.40;99.90;;;;;;4716598;30;20535;-95
2021/07/01 13:12:52;;;;;;;2.50;2.30;;;13.40;99.90;;;;;;4716265;30;20478;-95
2021/07/01 13:15:27;;;;;;;2.65;2.00;;;13.50;99.90;;;;;;4702598;30;20448;-95
2021/07/01 13:18:03;;;;;;;3.00;2.30;;;13.60;99.90;;;;;;4702704;30;20455;-95
2021/07/01 13:20:37;;;;;;;2.80;2.00;;;13.50;99.90;;;;;;4716082;30;20448;-95
2021/07/01 13:23:04;;;;;;;2.80;2.20;;;13.50;99.90;;;;;;4724965;30;21019;-95
2021/07/01 13:25:33;;;;;;;2.17;1.98;;;13.50;99.90;;;;;;4753956;30;20445;-96
2021/07/01 13:28:09;;;;;;;4.28;1.90;;;13.50;99.90;;;;;;4791374;29;20445;-95
2021/07/01 13:30:41;;;;;;;2.20;2.00;;;13.70;99.90;;;;;;4842343;29;20848;-95
2021/07/01 13:33:29;;;;;;;2.80;2.00;;;13.70;99.90;;;;;;4826657;29;20443;-95
2021/07/01 13:36:06;;;;;;;2.10;1.90;;;13.60;99.90;;;;;;4841492;29;21014;-95
2021/07/01 13:38:39;;;;;;;2.45;2.25;;;13.50;99.90;;;;;;4838429;29;20451;-94
2021/07/01 13:41:15;;;;;;;2.80;1.90;;;13.40;99.90;;;;;;4849685;29;20455;-94
2021/07/01 13:43:45;;;;;;;1.98;1.67;;;13.40;99.90;;;;;;4842153;29;20938;-96
2021/07/01 13:46:13;;;;;;;2.42;1.63;;;14.00;99.90;;;;;;4841580;29;20440;-96
2021/07/01 13:48:59;;;;;;;2.10;1.60;;;14.30;99.90;;;;;;4842023;29;20443;-94
2021/07/01 13:51:32;;;;;;;2.70;2.20;;;14.00;99.90;;;;;;4844841;29;20767;-95
2021/07/01 13:54:12;;;;;;;3.65;2.30;;;13.70;99.90;;;;;;4844792;29;20497;-94
2021/07/01 13:56:45;;;;;;;3.35;2.38;;;13.50;99.90;;;;;;4846159;29;20477;-95
2021/07/01 13:59:14;;;;;;;2.67;2.30;;;13.20;99.90;;;;;;4846732;29;20446;-96
2021/07/01 14:02:11;;;;;;;4.80;2.50;;;12.90;99.90;;;;;;4845252;29;20856;-96
2021/07/01 14:05:04;;;;;;;3.38;2.60;;;12.80;99.90;;;;;;4847486;29;20946;-94
2021/07/01 14:07:43;;;;;;;4.25;3.15;;;12.70;99.90;;;;;;4847559;29;20489;-95
2021/07/01 14:10:30;;;;;;;10.27;4.03;;;12.60;99.90;;;;;;4845452;29;20436;-96
2021/07/01 14:13:08;;;;;;;6.38;4.40;;;12.50;99.90;;;;;;4833261;29;21010;-94
2021/07/01 14:15:40;;;;;;;6.38;5.13;;;12.30;99.90;;;;;;4831359;29;20626;-96
2021/07/01 14:18:15;;;;;;;9.00;6.05;;;12.30;99.90;;;;;;4829745;29;21007;-95
2021/07/01 14:20:58;;;;;;;4.10;3.70;;;12.50;99.90;;;;;;4845391;29;20436;-95
2021/07/01 14:23:43;;;;;;;4.30;3.20;;;12.60;99.90;;;;;;4831034;29;21008;-95
2021/07/01 14:26:22;;;;;;;5.13;3.30;;;12.70;99.90;;;;;;4845525;29;20528;-96
2021/07/01 14:29:02;;;;;;;4.72;2.72;;;12.80;99.90;;;;;;4829920;29;20955;-95
2021/07/01 14:31:47;;;;;;;3.03;2.13;;;12.90;99.90;;;;;;4844661;29;20448;-95
2021/07/01 14:34:44;;;;;;;1.83;1.63;;;13.10;99.90;;;;;;4842513;29;20508;-95
2021/07/01 14:37:42;;;;;;;1.70;1.60;;;13.40;99.90;;;;;;4845451;29;20436;-95
2021/07/01 14:40:23;;;;;;;2.73;1.47;;;13.40;99.90;;;;;;4850931;29;20527;-95
2021/07/01 14:43:40;;;;;;;1.40;1.30;;;13.40;99.90;;;;;;4831909;29;20463;-96
2021/07/01 14:46:26;;;;;;;1.95;1.67;;;13.30;99.90;;;;;;4846600;29;20516;-96
2021/07/01 14:49:18;;;;;;;1.42;1.25;;;13.20;99.90;;;;;;4845682;29;20447;-96
2021/07/01 14:52:29;;;;;;;2.40;1.55;;;13.00;99.90;;;;;;4846609;29;20448;-96
2021/07/01 14:55:24;;;;;;;1.70;1.60;;;12.80;99.90;;;;;;4834761;29;20926;-96
2021/07/01 14:58:55;;;;;;;2.45;2.25;;;12.70;99.90;;;;;;4829415;29;20435;-95
2021/07/01 15:05:38;;;;;;;2.58;2.38;;;12.60;99.90;;;;;;4736120;30;20492;-96
2021/07/01 15:08:32;;;;;;;3.72;2.13;;;12.60;99.90;;;;;;4705893;30;20458;-96
2021/07/01 15:15:15;;;;;;;;;;;;;;;;;;;;;
2021/07/01 15:18:36;;;;;;;;;;;;;;;;;;;;;
2021/07/01 16:23:32;;;;;;;10.55;7.60;;;12.50;99.90;;;;;;4841805;29;20984;-95
2021/07/01 16:26:08;;;;;;;12.38;8.65;;;12.50;99.90;;;;;;4828258;29;20436;-94
2021/07/01 16:28:41;;;;;;;13.00;9.30;;;12.50;99.90;;;;;;4828661;29;20446;-94
2021/07/01 16:31:08;;;;;;;12.23;8.35;;;12.80;99.90;;;;;;4828202;29;20436;-95
2021/07/01 16:33:39;;;;;;;11.20;6.53;;;13.00;99.90;;;;;;4842811;29;20952;-94
2021/07/01 16:36:14;;;;;;;5.63;3.70;;;13.40;99.90;;;;;;4843571;29;20518;-96
2021/07/01 16:38:44;;;;;;;3.90;2.97;;;13.70;99.90;;;;;;4842697;29;20443;-95
2021/07/01 16:41:12;;;;;;;6.28;3.58;;;13.70;99.90;;;;;;4827746;29;20478;-95
2021/07/01 16:43:41;;;;;;;4.45;3.10;;;13.80;99.90;;;;;;4827420;29;20459;-95
2021/07/01 16:46:29;;;;;;;4.78;2.92;;;13.80;99.90;;;;;;4842289;29;20832;-94
2021/07/01 16:49:40;;;;;;;3.25;2.70;;;14.10;99.90;;;;;;4842359;29;21014;-95
2021/07/01 16:56:25;;;;;;;3.05;2.10;;;15.10;99.90;;;;;;4877037;29;20462;-96
2021/07/01 18:07:52;;;;;;;69.13;26.40;;;12.30;99.90;;;;;;5939809;23;20400;31
2021/07/01 18:10:27;;;;;;;50.05;23.42;;;12.30;99.90;;;;;;4824719;29;20986;-94
2021/07/01 18:12:54;;;;;;;135.57;28.85;;;12.30;99.90;;;;;;4827612;29;20433;-96
2021/07/01 18:15:24;;;;;;;421.45;41.15;;;12.30;99.90;;;;;;4826998;29;20517;-95
2021/07/01 18:18:11;;;;;;;20.63;11.52;;;12.30;99.90;;;;;;4830225;29;20457;-95
2021/07/01 18:20:48;;;;;;;20.00;11.23;;;12.10;99.90;;;;;;4833343;29;20438;-96
2021/07/01 18:23:15;;;;;;;19.90;11.23;;;12.10;99.90;;;;;;4829704;29;20507;-95
2021/07/01 18:29:53;;;;;;;36.58;18.20;;;12.10;99.90;;;;;;4826754;29;20420;-96
2021/07/01 18:32:54;;;;;;;29.58;16.00;;;12.10;99.90;;;;;;5122580;23;20440;-96
2021/07/01 18:35:59;;;;;;;22.52;12.15;;;12.00;99.90;;;;;;4826025;29;20461;-95
2021/07/01 20:26:33;;;;;;;522.83;48.97;;;11.60;99.90;;;;;;5177470;23;20448;-96
